sensor_id;sensor_type;location;lat;lon;timestamp;pressure;altitude;pressure_sealevel;temperature;humidity
14790;BME280;7486;51.010;10.366;2023-03-31T00:02:05;97389.56;;;6.78;78.71
14790;BME280;7486;51.010;10.366;2023-03-31T00:04:50;97431.09;;;7.09;78.17
14790;BME280;7486;51.010;10.366;2023-03-31T00:07:36;97424.41;;;7.13;77.18
14790;BME280;7486;51.010;10.366;2023-03-31T00:10:21;97424.22;;;7.14;77.41
14790;BME280;7486;51.010;10.366;2023-03-31T00:13:06;97424.22;;;7.14;77.21
14790;BME280;7486;51.010;10.366;2023-03-31T00:15:56;97406.00;;;7.00;77.77
14790;BME280;7486;51.010;10.366;2023-03-31T00:18:41;97399.91;;;7.12;77.59
14790;BME280;7486;51.010;10.366;2023-03-31T00:21:27;97395.66;;;7.05;77.52
14790;BME280;7486;51.010;10.366;2023-03-31T00:24:14;97408.63;;;6.74;79.17
14790;BME280;7486;51.010;10.366;2023-03-31T00:27:03;97363.22;;;6.52;79.79
14790;BME280;7486;51.010;10.366;2023-03-31T00:29:49;97378.03;;;6.79;79.71
14790;BME280;7486;51.010;10.366;2023-03-31T00:32:35;97338.31;;;6.61;79.16
14790;BME280;7486;51.010;10.366;2023-03-31T00:35:20;97369.56;;;6.84;79.17
14790;BME280;7486;51.010;10.366;2023-03-31T00:38:06;97374.41;;;6.74;79.99
14790;BME280;7486;51.010;10.366;2023-03-31T00:40:51;97364.88;;;6.73;79.82
14790;BME280;7486;51.010;10.366;2023-03-31T00:43:38;97347.84;;;6.68;79.21
14790;BME280;7486;51.010;10.366;2023-03-31T00:46:30;97307.16;;;6.38;79.78
14790;BME280;7486;51.010;10.366;2023-03-31T00:52:17;97354.16;;;6.94;78.65
14790;BME280;7486;51.010;10.366;2023-03-31T00:55:07;97345.63;;;6.92;78.35
14790;BME280;7486;51.010;10.366;2023-03-31T00:57:54;97349.31;;;6.78;79.46
14790;BME280;7486;51.010;10.366;2023-03-31T01:00:41;97361.22;;;6.60;79.84
14790;BME280;7486;51.010;10.366;2023-03-31T01:03:27;97339.75;;;6.44;81.00
14790;BME280;7486;51.010;10.366;2023-03-31T01:06:15;97310.59;;;6.45;80.61
14790;BME280;7486;51.010;10.366;2023-03-31T01:09:02;97330.06;;;6.77;79.75
14790;BME280;7486;51.010;10.366;2023-03-31T01:11:47;97299.91;;;6.47;79.52
14790;BME280;7486;51.010;10.366;2023-03-31T01:14:34;97308.59;;;6.67;79.61
14790;BME280;7486;51.010;10.366;2023-03-31T01:17:20;97272.78;;;6.59;78.70
14790;BME280;7486;51.010;10.366;2023-03-31T01:42:16;97273.78;;;6.58;79.94
14790;BME280;7486;51.010;10.366;2023-03-31T01:48:03;97300.13;;;6.85;79.99
14790;BME280;7486;51.010;10.366;2023-03-31T01:51:00;97288.34;;;6.67;80.65
14790;BME280;7486;51.010;10.366;2023-03-31T01:54:36;97288.13;;;6.69;80.96
14790;BME280;7486;51.010;10.366;2023-03-31T01:57:39;97278.66;;;6.88;79.96
14790;BME280;7486;51.010;10.366;2023-03-31T02:00:29;97280.22;;;6.95;79.59
14790;BME280;7486;51.010;10.366;2023-03-31T02:03:21;97271.38;;;6.77;79.73
14790;BME280;7486;51.010;10.366;2023-03-31T02:06:12;97264.47;;;6.62;80.56
14790;BME280;7486;51.010;10.366;2023-03-31T02:09:03;97259.41;;;6.87;79.95
14790;BME280;7486;51.010;10.366;2023-03-31T02:11:51;97247.25;;;6.86;79.32
14790;BME280;7486;51.010;10.366;2023-03-31T02:14:41;97212.66;;;6.56;80.45
14790;BME280;7486;51.010;10.366;2023-03-31T02:17:27;97206.41;;;6.71;79.70
14790;BME280;7486;51.010;10.366;2023-03-31T02:20:16;97234.09;;;6.86;79.24
14790;BME280;7486;51.010;10.366;2023-03-31T02:23:04;97230.03;;;6.97;78.91
14790;BME280;7486;51.010;10.366;2023-03-31T02:25:52;97229.63;;;6.87;79.43
14790;BME280;7486;51.010;10.366;2023-03-31T02:28:39;97227.97;;;6.99;79.08
14790;BME280;7486;51.010;10.366;2023-03-31T02:34:15;97219.16;;;6.60;80.60
14790;BME280;7486;51.010;10.366;2023-03-31T02:37:01;97169.38;;;6.46;80.70
14790;BME280;7486;51.010;10.366;2023-03-31T02:39:48;97210.16;;;7.01;79.60
14790;BME280;7486;51.010;10.366;2023-03-31T02:42:37;97208.94;;;7.03;79.18
14790;BME280;7486;51.010;10.366;2023-03-31T02:48:43;97201.66;;;7.05;80.11
14790;BME280;7486;51.010;10.366;2023-03-31T02:51:54;97200.00;;;7.11;80.23
14790;BME280;7486;51.010;10.366;2023-03-31T02:55:03;97199.25;;;6.91;81.25
14790;BME280;7486;51.010;10.366;2023-03-31T03:01:06;97189.13;;;6.94;81.99
14790;BME280;7486;51.010;10.366;2023-03-31T03:10:09;97126.88;;;6.49;84.20
14790;BME280;7486;51.010;10.366;2023-03-31T03:16:22;97170.97;;;6.60;85.57
14790;BME280;7486;51.010;10.366;2023-03-31T03:19:20;97163.69;;;6.55;86.52
14790;BME280;7486;51.010;10.366;2023-03-31T03:22:06;97166.13;;;6.57;86.57
14790;BME280;7486;51.010;10.366;2023-03-31T03:24:53;97161.44;;;6.65;86.64
14790;BME280;7486;51.010;10.366;2023-03-31T03:27:39;97125.28;;;6.35;87.21
14790;BME280;7486;51.010;10.366;2023-03-31T03:30:25;97158.41;;;6.62;87.67
14790;BME280;7486;51.010;10.366;2023-03-31T03:33:10;97154.19;;;6.54;87.39
14790;BME280;7486;51.010;10.366;2023-03-31T03:35:58;97136.19;;;6.51;87.63
14790;BME280;7486;51.010;10.366;2023-03-31T03:38:43;97134.13;;;6.66;87.69
14790;BME280;7486;51.010;10.366;2023-03-31T03:41:29;97134.94;;;6.74;86.25
14790;BME280;7486;51.010;10.366;2023-03-31T03:44:15;97122.41;;;6.62;86.89
14790;BME280;7486;51.010;10.366;2023-03-31T03:47:00;97120.38;;;6.71;86.65
14790;BME280;7486;51.010;10.366;2023-03-31T03:49:46;97114.53;;;6.49;87.80
14790;BME280;7486;51.010;10.366;2023-03-31T03:52:31;97104.16;;;6.61;86.84
14790;BME280;7486;51.010;10.366;2023-03-31T03:55:16;97107.44;;;6.56;87.46
14790;BME280;7486;51.010;10.366;2023-03-31T03:58:02;97106.63;;;6.56;88.05
14790;BME280;7486;51.010;10.366;2023-03-31T04:00:47;97105.75;;;6.68;87.35
14790;BME280;7486;51.010;10.366;2023-03-31T04:03:32;97088.41;;;6.54;87.88
14790;BME280;7486;51.010;10.366;2023-03-31T04:06:18;97087.63;;;6.54;88.16
14790;BME280;7486;51.010;10.366;2023-03-31T04:09:03;97084.31;;;6.78;87.12
14790;BME280;7486;51.010;10.366;2023-03-31T04:11:49;97069.63;;;7.02;86.27
14790;BME280;7486;51.010;10.366;2023-03-31T04:14:34;97063.25;;;6.85;85.66
14790;BME280;7486;51.010;10.366;2023-03-31T04:17:19;97058.88;;;7.03;84.95
14790;BME280;7486;51.010;10.366;2023-03-31T04:20:07;97043.69;;;6.99;84.65
14790;BME280;7486;51.010;10.366;2023-03-31T04:22:53;97017.22;;;6.94;83.50
14790;BME280;7486;51.010;10.366;2023-03-31T04:25:38;97032.72;;;7.08;83.52
14790;BME280;7486;51.010;10.366;2023-03-31T04:28:23;97027.47;;;7.08;82.97
14790;BME280;7486;51.010;10.366;2023-03-31T04:31:09;97021.63;;;7.00;83.20
14790;BME280;7486;51.010;10.366;2023-03-31T04:33:55;97005.34;;;6.85;83.53
14790;BME280;7486;51.010;10.366;2023-03-31T04:36:42;96999.69;;;6.81;83.71
14790;BME280;7486;51.010;10.366;2023-03-31T04:39:29;96994.06;;;6.64;84.61
14790;BME280;7486;51.010;10.366;2023-03-31T04:42:15;96985.53;;;6.76;84.71
14790;BME280;7486;51.010;10.366;2023-03-31T04:45:01;96973.00;;;6.64;85.18
14790;BME280;7486;51.010;10.366;2023-03-31T04:47:46;96928.34;;;6.27;86.06
14790;BME280;7486;51.010;10.366;2023-03-31T04:50:31;96966.81;;;6.52;86.62
14790;BME280;7486;51.010;10.366;2023-03-31T04:53:16;96951.19;;;6.64;85.81
14790;BME280;7486;51.010;10.366;2023-03-31T04:56:02;96961.91;;;6.62;85.70
14790;BME280;7486;51.010;10.366;2023-03-31T04:58:48;96962.50;;;6.71;85.85
14790;BME280;7486;51.010;10.366;2023-03-31T05:01:33;96957.66;;;6.61;85.73
14790;BME280;7486;51.010;10.366;2023-03-31T05:04:18;96940.72;;;6.51;85.69
14790;BME280;7486;51.010;10.366;2023-03-31T05:07:04;96905.72;;;6.19;85.49
14790;BME280;7486;51.010;10.366;2023-03-31T05:09:49;96961.03;;;6.37;86.21
14790;BME280;7486;51.010;10.366;2023-03-31T05:12:37;96946.69;;;6.33;86.96
14790;BME280;7486;51.010;10.366;2023-03-31T05:15:24;96935.78;;;6.30;86.39
14790;BME280;7486;51.010;10.366;2023-03-31T05:18:10;96964.72;;;6.30;87.35
14790;BME280;7486;51.010;10.366;2023-03-31T05:20:55;96937.41;;;6.24;86.75
14790;BME280;7486;51.010;10.366;2023-03-31T05:23:40;96967.06;;;6.44;87.06
14790;BME280;7486;51.010;10.366;2023-03-31T05:26:26;96949.88;;;6.42;86.53
14790;BME280;7486;51.010;10.366;2023-03-31T05:29:11;96944.34;;;6.56;86.41
14790;BME280;7486;51.010;10.366;2023-03-31T05:31:56;96935.84;;;6.54;85.91
14790;BME280;7486;51.010;10.366;2023-03-31T05:34:42;96928.06;;;6.73;85.96
14790;BME280;7486;51.010;10.366;2023-03-31T05:37:27;96899.38;;;6.71;84.97
14790;BME280;7486;51.010;10.366;2023-03-31T05:40:13;96873.53;;;6.55;86.02
14790;BME280;7486;51.010;10.366;2023-03-31T05:42:58;96881.94;;;6.70;85.87
14790;BME280;7486;51.010;10.366;2023-03-31T05:45:44;96884.00;;;6.61;85.62
14790;BME280;7486;51.010;10.366;2023-03-31T05:48:29;96903.81;;;6.71;85.81
14790;BME280;7486;51.010;10.366;2023-03-31T05:51:14;96899.41;;;6.58;86.70
14790;BME280;7486;51.010;10.366;2023-03-31T05:54:00;96898.72;;;6.69;86.35
14790;BME280;7486;51.010;10.366;2023-03-31T05:56:45;96886.63;;;6.61;86.57
14790;BME280;7486;51.010;10.366;2023-03-31T05:59:31;96903.22;;;6.62;87.47
14790;BME280;7486;51.010;10.366;2023-03-31T06:02:16;96885.53;;;6.76;87.00
14790;BME280;7486;51.010;10.366;2023-03-31T06:05:02;96850.84;;;6.60;87.11
14790;BME280;7486;51.010;10.366;2023-03-31T06:07:50;96868.53;;;6.78;86.79
14790;BME280;7486;51.010;10.366;2023-03-31T06:10:37;96871.84;;;6.67;87.87
14790;BME280;7486;51.010;10.366;2023-03-31T06:13:22;96880.34;;;6.62;87.06
14790;BME280;7486;51.010;10.366;2023-03-31T06:16:09;96870.34;;;6.46;87.93
14790;BME280;7486;51.010;10.366;2023-03-31T06:18:56;96873.41;;;6.43;88.25
14790;BME280;7486;51.010;10.366;2023-03-31T06:21:41;96872.72;;;6.54;88.09
14790;BME280;7486;51.010;10.366;2023-03-31T06:24:27;96858.88;;;6.65;86.31
14790;BME280;7486;51.010;10.366;2023-03-31T06:27:12;96844.53;;;6.61;86.44
14790;BME280;7486;51.010;10.366;2023-03-31T06:29:57;96845.19;;;6.57;86.27
14790;BME280;7486;51.010;10.366;2023-03-31T06:32:43;96850.06;;;6.53;87.04
14790;BME280;7486;51.010;10.366;2023-03-31T06:35:29;96850.22;;;6.58;86.77
14790;BME280;7486;51.010;10.366;2023-03-31T06:38:14;96847.84;;;6.82;85.60
14790;BME280;7486;51.010;10.366;2023-03-31T06:41:00;96841.69;;;6.94;84.99
14790;BME280;7486;51.010;10.366;2023-03-31T06:43:46;96853.72;;;6.84;84.42
14790;BME280;7486;51.010;10.366;2023-03-31T06:46:32;96851.78;;;6.97;83.77
14790;BME280;7486;51.010;10.366;2023-03-31T06:49:17;96849.13;;;6.73;84.30
14790;BME280;7486;51.010;10.366;2023-03-31T06:52:03;96840.25;;;6.67;85.10
14790;BME280;7486;51.010;10.366;2023-03-31T06:54:48;96833.03;;;6.87;83.66
14790;BME280;7486;51.010;10.366;2023-03-31T06:57:34;96769.88;;;6.38;84.33
14790;BME280;7486;51.010;10.366;2023-03-31T07:00:19;96843.63;;;6.81;84.02
14790;BME280;7486;51.010;10.366;2023-03-31T07:03:07;96840.88;;;6.94;84.07
14790;BME280;7486;51.010;10.366;2023-03-31T07:05:53;96825.44;;;6.97;83.43
14790;BME280;7486;51.010;10.366;2023-03-31T07:08:39;96830.69;;;7.22;82.47
14790;BME280;7486;51.010;10.366;2023-03-31T07:11:24;96826.09;;;7.36;81.23
14790;BME280;7486;51.010;10.366;2023-03-31T07:14:09;96816.03;;;7.44;80.47
14790;BME280;7486;51.010;10.366;2023-03-31T07:16:55;96819.91;;;7.24;80.27
14790;BME280;7486;51.010;10.366;2023-03-31T07:19:40;96818.38;;;6.98;81.57
14790;BME280;7486;51.010;10.366;2023-03-31T07:22:26;96803.84;;;6.71;83.84
14790;BME280;7486;51.010;10.366;2023-03-31T07:25:14;96793.22;;;6.52;85.48
14790;BME280;7486;51.010;10.366;2023-03-31T07:27:59;96784.16;;;6.48;85.24
14790;BME280;7486;51.010;10.366;2023-03-31T07:30:45;96801.81;;;6.66;86.04
14790;BME280;7486;51.010;10.366;2023-03-31T07:33:30;96800.06;;;6.85;85.48
14790;BME280;7486;51.010;10.366;2023-03-31T07:36:16;96804.03;;;6.94;85.47
14790;BME280;7486;51.010;10.366;2023-03-31T07:39:04;96795.72;;;7.15;84.17
14790;BME280;7486;51.010;10.366;2023-03-31T07:41:50;96787.97;;;7.02;84.55
14790;BME280;7486;51.010;10.366;2023-03-31T07:44:35;96785.16;;;6.97;85.57
14790;BME280;7486;51.010;10.366;2023-03-31T07:47:21;96783.25;;;6.86;86.03
14790;BME280;7486;51.010;10.366;2023-03-31T07:50:06;96772.28;;;6.89;85.91
14790;BME280;7486;51.010;10.366;2023-03-31T07:52:52;96754.78;;;6.76;86.85
14790;BME280;7486;51.010;10.366;2023-03-31T07:55:38;96724.47;;;6.74;87.13
14790;BME280;7486;51.010;10.366;2023-03-31T07:58:23;96750.28;;;7.01;86.29
14790;BME280;7486;51.010;10.366;2023-03-31T08:01:08;96742.00;;;6.80;87.30
14790;BME280;7486;51.010;10.366;2023-03-31T08:03:54;96733.53;;;6.96;87.47
14790;BME280;7486;51.010;10.366;2023-03-31T08:06:39;96736.75;;;6.98;87.15
14790;BME280;7486;51.010;10.366;2023-03-31T08:09:25;96742.47;;;6.95;87.73
14790;BME280;7486;51.010;10.366;2023-03-31T08:12:11;96727.22;;;6.79;88.46
14790;BME280;7486;51.010;10.366;2023-03-31T08:14:57;96728.94;;;7.09;87.21
14790;BME280;7486;51.010;10.366;2023-03-31T08:17:43;96664.63;;;6.62;87.15
14790;BME280;7486;51.010;10.366;2023-03-31T08:20:29;96666.63;;;6.67;87.11
14790;BME280;7486;51.010;10.366;2023-03-31T08:23:14;96713.94;;;6.92;87.33
14790;BME280;7486;51.010;10.366;2023-03-31T08:26:11;96711.75;;;6.89;87.45
14790;BME280;7486;51.010;10.366;2023-03-31T08:29:00;96706.59;;;6.57;88.96
14790;BME280;7486;51.010;10.366;2023-03-31T08:31:45;96705.84;;;6.68;88.55
14790;BME280;7486;51.010;10.366;2023-03-31T08:34:31;96702.31;;;6.99;87.63
14790;BME280;7486;51.010;10.366;2023-03-31T08:37:17;96693.31;;;6.89;87.75
14790;BME280;7486;51.010;10.366;2023-03-31T08:40:04;96693.31;;;7.07;87.29
14790;BME280;7486;51.010;10.366;2023-03-31T08:42:52;96634.28;;;6.85;85.89
14790;BME280;7486;51.010;10.366;2023-03-31T08:45:45;96656.47;;;6.89;86.38
14790;BME280;7486;51.010;10.366;2023-03-31T08:48:36;96693.06;;;7.27;85.50
14790;BME280;7486;51.010;10.366;2023-03-31T08:51:27;96677.78;;;7.35;84.95
14790;BME280;7486;51.010;10.366;2023-03-31T08:54:40;96676.13;;;7.52;84.33
14790;BME280;7486;51.010;10.366;2023-03-31T09:00:18;96674.31;;;7.64;84.09
14790;BME280;7486;51.010;10.366;2023-03-31T09:03:17;96664.75;;;7.70;83.25
14790;BME280;7486;51.010;10.366;2023-03-31T09:06:55;96637.56;;;7.28;84.73
14790;BME280;7486;51.010;10.366;2023-03-31T09:09:32;96667.72;;;7.74;84.46
14790;BME280;7486;51.010;10.366;2023-03-31T09:15:39;96657.59;;;7.70;85.27
14790;BME280;7486;51.010;10.366;2023-03-31T09:18:35;96656.94;;;7.75;85.34
14790;BME280;7486;51.010;10.366;2023-03-31T09:21:43;96664.38;;;7.66;85.33
14790;BME280;7486;51.010;10.366;2023-03-31T09:24:34;96655.66;;;7.66;85.34
14790;BME280;7486;51.010;10.366;2023-03-31T09:27:23;96649.81;;;7.64;85.61
14790;BME280;7486;51.010;10.366;2023-03-31T09:30:26;96647.97;;;7.64;85.04
14790;BME280;7486;51.010;10.366;2023-03-31T09:33:18;96645.63;;;7.45;85.95
14790;BME280;7486;51.010;10.366;2023-03-31T09:36:16;96609.81;;;7.14;87.31
14790;BME280;7486;51.010;10.366;2023-03-31T09:39:03;96624.56;;;7.15;88.19
14790;BME280;7486;51.010;10.366;2023-03-31T09:41:50;96610.97;;;7.18;88.14
14790;BME280;7486;51.010;10.366;2023-03-31T09:44:42;96559.56;;;6.86;88.88
14790;BME280;7486;51.010;10.366;2023-03-31T09:47:34;96600.03;;;7.03;89.04
14790;BME280;7486;51.010;10.366;2023-03-31T09:50:22;96596.22;;;6.99;88.38
14790;BME280;7486;51.010;10.366;2023-03-31T09:53:39;96586.41;;;7.36;88.13
14790;BME280;7486;51.010;10.366;2023-03-31T09:59:43;96587.25;;;7.59;85.61
14790;BME280;7486;51.010;10.366;2023-03-31T10:02:35;96573.50;;;7.57;84.93
14790;BME280;7486;51.010;10.366;2023-03-31T10:05:51;96579.72;;;7.75;84.49
14790;BME280;7486;51.010;10.366;2023-03-31T10:08:38;96565.84;;;7.56;83.92
14790;BME280;7486;51.010;10.366;2023-03-31T10:11:26;96575.38;;;7.80;83.76
14790;BME280;7486;51.010;10.366;2023-03-31T10:14:13;96571.25;;;7.96;83.06
14790;BME280;7486;51.010;10.366;2023-03-31T10:17:03;96561.63;;;7.90;82.69
14790;BME280;7486;51.010;10.366;2023-03-31T10:20:04;96550.63;;;7.93;82.08
14790;BME280;7486;51.010;10.366;2023-03-31T10:22:50;96555.66;;;7.83;81.96
14790;BME280;7486;51.010;10.366;2023-03-31T10:25:35;96552.00;;;7.84;82.19
14790;BME280;7486;51.010;10.366;2023-03-31T10:28:21;96542.25;;;8.07;82.50
14790;BME280;7486;51.010;10.366;2023-03-31T10:31:07;96545.63;;;8.14;82.26
14790;BME280;7486;51.010;10.366;2023-03-31T10:33:54;96528.41;;;8.12;82.78
14790;BME280;7486;51.010;10.366;2023-03-31T10:36:45;96526.09;;;8.04;82.89
14790;BME280;7486;51.010;10.366;2023-03-31T10:39:31;96528.50;;;8.05;84.61
14790;BME280;7486;51.010;10.366;2023-03-31T10:42:21;96457.47;;;7.87;89.15
14790;BME280;7486;51.010;10.366;2023-03-31T10:45:17;96517.78;;;8.47;88.40
14790;BME280;7486;51.010;10.366;2023-03-31T10:48:35;96521.09;;;8.54;83.46
14790;BME280;7486;51.010;10.366;2023-03-31T10:51:26;96515.72;;;8.77;85.24
14790;BME280;7486;51.010;10.366;2023-03-31T10:54:11;96522.53;;;9.18;85.89
14790;BME280;7486;51.010;10.366;2023-03-31T10:56:58;96506.84;;;9.28;79.95
14790;BME280;7486;51.010;10.366;2023-03-31T11:05:58;96492.47;;;9.86;81.40
14790;BME280;7486;51.010;10.366;2023-03-31T11:11:57;96490.34;;;10.04;75.92
14790;BME280;7486;51.010;10.366;2023-03-31T11:42:27;96453.88;;;10.28;76.82
14790;BME280;7486;51.010;10.366;2023-03-31T11:45:20;96439.47;;;10.62;75.92
14790;BME280;7486;51.010;10.366;2023-03-31T11:48:49;96383.00;;;10.30;73.00
14790;BME280;7486;51.010;10.366;2023-03-31T11:54:35;96442.09;;;10.89;73.00
14790;BME280;7486;51.010;10.366;2023-03-31T11:57:38;96445.84;;;10.93;70.26
14790;BME280;7486;51.010;10.366;2023-03-31T12:00:33;96435.81;;;10.47;68.83
14790;BME280;7486;51.010;10.366;2023-03-31T12:06:23;96436.81;;;9.97;72.60
14790;BME280;7486;51.010;10.366;2023-03-31T12:09:24;96433.50;;;9.85;75.93
14790;BME280;7486;51.010;10.366;2023-03-31T12:12:14;96393.94;;;9.35;74.98
14790;BME280;7486;51.010;10.366;2023-03-31T12:15:16;96439.78;;;9.29;76.29
14790;BME280;7486;51.010;10.366;2023-03-31T12:18:15;96442.34;;;9.57;77.44
14790;BME280;7486;51.010;10.366;2023-03-31T12:21:03;96438.50;;;9.65;74.73
14790;BME280;7486;51.010;10.366;2023-03-31T12:23:49;96467.78;;;9.80;74.23
14790;BME280;7486;51.010;10.366;2023-03-31T12:26:49;96461.22;;;9.83;72.04
14790;BME280;7486;51.010;10.366;2023-03-31T12:29:39;96460.38;;;9.60;70.68
14790;BME280;7486;51.010;10.366;2023-03-31T12:32:31;96475.41;;;9.10;72.14
14790;BME280;7486;51.010;10.366;2023-03-31T12:35:25;96464.59;;;9.28;72.92
14790;BME280;7486;51.010;10.366;2023-03-31T12:38:26;96474.81;;;9.36;72.21
14790;BME280;7486;51.010;10.366;2023-03-31T12:47:34;96484.25;;;8.19;72.74
14790;BME280;7486;51.010;10.366;2023-03-31T12:53:32;96486.91;;;7.96;71.97
14790;BME280;7486;51.010;10.366;2023-03-31T12:56:19;96492.97;;;7.38;73.80
14790;BME280;7486;51.010;10.366;2023-03-31T12:59:17;96478.66;;;7.46;74.42
14790;BME280;7486;51.010;10.366;2023-03-31T13:04:54;96499.84;;;7.51;74.10
14790;BME280;7486;51.010;10.366;2023-03-31T13:07:41;96493.00;;;7.50;76.12
14790;BME280;7486;51.010;10.366;2023-03-31T13:10:29;96480.63;;;7.39;77.53
14790;BME280;7486;51.010;10.366;2023-03-31T13:13:17;96478.31;;;7.19;77.96
14790;BME280;7486;51.010;10.366;2023-03-31T13:16:02;96464.59;;;6.87;79.26
14790;BME280;7486;51.010;10.366;2023-03-31T13:18:52;96455.56;;;6.83;81.18
14790;BME280;7486;51.010;10.366;2023-03-31T13:22:26;96446.75;;;6.78;81.17
14790;BME280;7486;51.010;10.366;2023-03-31T13:25:54;96442.28;;;6.90;80.88
14790;BME280;7486;51.010;10.366;2023-03-31T13:28:41;96427.00;;;6.98;80.54
14790;BME280;7486;51.010;10.366;2023-03-31T13:37:55;96456.63;;;6.94;79.94
14790;BME280;7486;51.010;10.366;2023-03-31T13:44:10;96467.19;;;7.05;81.73
14790;BME280;7486;51.010;10.366;2023-03-31T14:05:22;96450.72;;;7.68;80.55
14790;BME280;7486;51.010;10.366;2023-03-31T14:08:38;96451.28;;;7.82;81.63
14790;BME280;7486;51.010;10.366;2023-03-31T14:11:25;96450.03;;;7.73;80.46
14790;BME280;7486;51.010;10.366;2023-03-31T14:14:13;96458.00;;;8.12;79.82
14790;BME280;7486;51.010;10.366;2023-03-31T14:17:01;96378.88;;;7.61;76.84
14790;BME280;7486;51.010;10.366;2023-03-31T14:23:37;96449.31;;;7.89;78.71
14790;BME280;7486;51.010;10.366;2023-03-31T14:29:40;96439.44;;;7.96;79.45
14790;BME280;7486;51.010;10.366;2023-03-31T14:36:05;96440.94;;;8.43;79.13
14790;BME280;7486;51.010;10.366;2023-03-31T14:39:00;96427.38;;;8.51;76.95
14790;BME280;7486;51.010;10.366;2023-03-31T14:41:54;96424.06;;;8.73;76.53
14790;BME280;7486;51.010;10.366;2023-03-31T14:44:42;96412.50;;;8.45;77.25
14790;BME280;7486;51.010;10.366;2023-03-31T14:47:28;96431.75;;;8.74;76.87
14790;BME280;7486;51.010;10.366;2023-03-31T14:50:17;96424.03;;;8.56;77.40
14790;BME280;7486;51.010;10.366;2023-03-31T14:53:04;96433.13;;;8.48;78.82
14790;BME280;7486;51.010;10.366;2023-03-31T14:56:04;96474.47;;;8.31;79.75
14790;BME280;7486;51.010;10.366;2023-03-31T14:58:52;96385.25;;;7.25;79.97
14790;BME280;7486;51.010;10.366;2023-03-31T15:01:38;96403.78;;;7.42;80.72
14790;BME280;7486;51.010;10.366;2023-03-31T15:04:25;96405.34;;;7.54;81.56
14790;BME280;7486;51.010;10.366;2023-03-31T15:07:26;96412.78;;;7.69;82.88
14790;BME280;7486;51.010;10.366;2023-03-31T15:10:16;96386.19;;;7.82;82.91
14790;BME280;7486;51.010;10.366;2023-03-31T15:13:11;96393.66;;;8.25;83.65
14790;BME280;7486;51.010;10.366;2023-03-31T15:16:18;96395.41;;;8.08;86.13
14790;BME280;7486;51.010;10.366;2023-03-31T15:19:11;96400.63;;;8.31;84.75
14790;BME280;7486;51.010;10.366;2023-03-31T15:24:43;96389.69;;;8.39;84.04
14790;BME280;7486;51.010;10.366;2023-03-31T15:27:36;96401.47;;;8.48;82.52
14790;BME280;7486;51.010;10.366;2023-03-31T15:30:24;96409.09;;;8.61;82.19
14790;BME280;7486;51.010;10.366;2023-03-31T15:33:20;96397.34;;;8.52;80.00
14790;BME280;7486;51.010;10.366;2023-03-31T15:36:10;96371.19;;;8.51;78.15
14790;BME280;7486;51.010;10.366;2023-03-31T15:38:57;96422.25;;;8.90;78.39
14790;BME280;7486;51.010;10.366;2023-03-31T15:41:45;96398.22;;;8.75;77.93
14790;BME280;7486;51.010;10.366;2023-03-31T15:44:44;96426.63;;;8.67;78.07
14790;BME280;7486;51.010;10.366;2023-03-31T15:47:31;96404.66;;;8.50;78.05
14790;BME280;7486;51.010;10.366;2023-03-31T15:50:20;96423.50;;;8.14;78.68
14790;BME280;7486;51.010;10.366;2023-03-31T15:53:27;96426.47;;;8.06;78.88
14790;BME280;7486;51.010;10.366;2023-03-31T15:59:24;96425.25;;;7.97;79.42
14790;BME280;7486;51.010;10.366;2023-03-31T16:02:38;96426.41;;;7.78;80.92
14790;BME280;7486;51.010;10.366;2023-03-31T16:05:45;96416.31;;;7.98;79.70
14790;BME280;7486;51.010;10.366;2023-03-31T16:08:46;96406.66;;;7.92;81.78
14790;BME280;7486;51.010;10.366;2023-03-31T16:11:37;96398.94;;;7.74;81.98
14790;BME280;7486;51.010;10.366;2023-03-31T16:14:45;96369.16;;;7.61;83.55
14790;BME280;7486;51.010;10.366;2023-03-31T16:17:36;96379.75;;;7.90;81.47
14790;BME280;7486;51.010;10.366;2023-03-31T16:20:26;96385.03;;;7.78;82.53
14790;BME280;7486;51.010;10.366;2023-03-31T16:23:18;96385.97;;;7.72;82.84
14790;BME280;7486;51.010;10.366;2023-03-31T16:26:05;96397.31;;;7.73;82.46
14790;BME280;7486;51.010;10.366;2023-03-31T16:28:52;96407.13;;;7.89;81.88
14790;BME280;7486;51.010;10.366;2023-03-31T16:31:39;96405.09;;;7.91;80.51
14790;BME280;7486;51.010;10.366;2023-03-31T16:34:30;96414.97;;;7.84;81.11
14790;BME280;7486;51.010;10.366;2023-03-31T16:37:15;96412.53;;;7.82;81.31
14790;BME280;7486;51.010;10.366;2023-03-31T16:40:01;96342.97;;;7.32;81.66
14790;BME280;7486;51.010;10.366;2023-03-31T16:42:46;96429.69;;;8.08;80.69
14790;BME280;7486;51.010;10.366;2023-03-31T16:45:32;96422.00;;;8.06;79.88
14790;BME280;7486;51.010;10.366;2023-03-31T16:48:19;96425.00;;;7.98;79.80
14790;BME280;7486;51.010;10.366;2023-03-31T16:51:04;96423.97;;;7.99;79.81
14790;BME280;7486;51.010;10.366;2023-03-31T16:53:52;96426.72;;;8.04;79.49
14790;BME280;7486;51.010;10.366;2023-03-31T16:56:37;96425.03;;;7.87;78.84
14790;BME280;7486;51.010;10.366;2023-03-31T16:59:23;96437.75;;;7.90;78.84
14790;BME280;7486;51.010;10.366;2023-03-31T17:02:09;96455.63;;;7.64;79.07
14790;BME280;7486;51.010;10.366;2023-03-31T17:04:55;96453.81;;;7.42;79.51
14790;BME280;7486;51.010;10.366;2023-03-31T17:07:50;96458.03;;;7.54;80.15
14790;BME280;7486;51.010;10.366;2023-03-31T17:10:37;96461.72;;;7.65;79.89
14790;BME280;7486;51.010;10.366;2023-03-31T17:13:23;96453.50;;;7.50;80.67
14790;BME280;7486;51.010;10.366;2023-03-31T17:16:09;96455.53;;;7.59;81.03
14790;BME280;7486;51.010;10.366;2023-03-31T17:19:03;96466.97;;;7.65;80.45
14790;BME280;7486;51.010;10.366;2023-03-31T17:21:48;96467.22;;;7.63;80.67
14790;BME280;7486;51.010;10.366;2023-03-31T17:24:34;96463.44;;;7.59;80.25
14790;BME280;7486;51.010;10.366;2023-03-31T17:27:20;96443.72;;;7.62;80.33
14790;BME280;7486;51.010;10.366;2023-03-31T17:30:05;96459.88;;;7.65;79.87
14790;BME280;7486;51.010;10.366;2023-03-31T17:32:51;96449.59;;;7.52;79.74
14790;BME280;7486;51.010;10.366;2023-03-31T17:35:37;96453.81;;;7.42;81.23
14790;BME280;7486;51.010;10.366;2023-03-31T17:38:22;96444.75;;;7.26;81.43
14790;BME280;7486;51.010;10.366;2023-03-31T17:41:10;96465.25;;;7.24;82.37
14790;BME280;7486;51.010;10.366;2023-03-31T17:43:56;96456.53;;;7.12;82.20
14790;BME280;7486;51.010;10.366;2023-03-31T17:46:42;96451.59;;;7.04;83.74